Time;durP1;ratioP1;P1;durP2;ratioP2;P2;SDS_P1;SDS_P2;PMS_P1;PMS_P2;Temp;Humidity;BMP_temperature;BMP_pressure;BME280_temperature;BME280_humidity;BME280_pressure;Samples;Min_cycle;Max_cycle;Signal;HPM_P1;HPM_P2
2023/08/24 00:02:01;;;;;;;2.53;2.33;;;24.40;63.70;;;;;;5016927;28;20117;-62
2023/08/24 00:04:27;;;;;;;2.50;2.30;;;24.30;63.60;;;;;;5015438;28;20500;-65
2023/08/24 00:06:53;;;;;;;2.20;2.00;;;24.30;63.40;;;;;;5005724;28;20068;-60
2023/08/24 00:09:18;;;;;;;2.50;1.92;;;24.30;63.40;;;;;;5008718;28;20121;-63
2023/08/24 00:11:44;;;;;;;2.35;2.15;;;24.30;63.70;;;;;;5007248;28;20033;-63
2023/08/24 00:14:10;;;;;;;3.13;2.35;;;24.30;63.40;;;;;;5010102;28;20038;-64
2023/08/24 00:16:35;;;;;;;2.63;2.20;;;24.30;63.50;;;;;;5009112;28;20034;-60
2023/08/24 00:19:01;;;;;;;2.33;2.13;;;24.30;63.50;;;;;;5004529;28;20517;-64
2023/08/24 00:21:26;;;;;;;2.72;1.90;;;24.30;63.70;;;;;;4981856;28;20245;-63
2023/08/24 00:23:52;;;;;;;3.17;2.20;;;24.40;63.60;;;;;;5010539;28;20026;-63
2023/08/24 00:26:18;;;;;;;2.53;2.30;;;24.30;63.50;;;;;;5013023;28;20056;-64
2023/08/24 00:28:44;;;;;;;5.00;3.03;;;24.30;63.50;;;;;;5012242;28;20041;-62
2023/08/24 00:31:09;;;;;;;2.97;2.60;;;24.30;63.30;;;;;;5007922;28;20034;-66
2023/08/24 00:33:35;;;;;;;2.90;2.10;;;24.30;63.50;;;;;;5010837;28;20052;-60
2023/08/24 00:36:01;;;;;;;2.13;1.92;;;24.40;63.70;;;;;;5006909;28;20026;-63
2023/08/24 00:38:27;;;;;;;3.88;2.58;;;24.30;63.60;;;;;;5006785;28;20519;-58
2023/08/24 00:40:53;;;;;;;3.85;2.33;;;24.30;63.60;;;;;;5006762;28;20034;-64
2023/08/24 00:43:23;;;;;;;2.70;2.00;;;24.30;63.60;;;;;;5007376;28;20030;-57
2023/08/24 00:45:51;;;;;;;2.80;2.42;;;24.30;63.80;;;;;;5007975;28;20030;-58
2023/08/24 00:48:17;;;;;;;3.15;2.42;;;24.30;63.70;;;;;;5005398;28;20025;-64
2023/08/24 00:50:43;;;;;;;2.08;1.90;;;24.30;63.60;;;;;;5008588;28;20318;-64
2023/08/24 00:53:08;;;;;;;4.28;2.40;;;24.30;63.50;;;;;;5008763;28;20061;-64
2023/08/24 00:55:34;;;;;;;3.00;2.10;;;24.30;63.60;;;;;;5013254;28;20530;-64
2023/08/24 00:57:59;;;;;;;2.63;1.75;;;24.30;63.60;;;;;;5009576;28;20084;-63
2023/08/24 01:00:25;;;;;;;2.38;2.17;;;24.20;63.50;;;;;;5015555;28;20125;-64
2023/08/24 01:02:51;;;;;;;2.38;2.17;;;24.20;63.50;;;;;;5017538;28;20073;-65
2023/08/24 01:05:16;;;;;;;2.97;2.40;;;24.20;63.50;;;;;;5004871;28;20026;-64
2023/08/24 01:07:42;;;;;;;3.38;2.33;;;24.20;64.30;;;;;;5007640;28;20334;-57
2023/08/24 01:10:10;;;;;;;3.80;1.80;;;24.20;63.60;;;;;;5003333;28;20097;-64
2023/08/24 01:12:41;;;;;;;2.65;2.17;;;24.20;63.50;;;;;;4989949;28;20439;-65
2023/08/24 01:15:15;;;;;;;2.75;2.55;;;24.20;63.50;;;;;;5006894;28;20026;-64
2023/08/24 01:17:43;;;;;;;2.65;2.45;;;24.20;63.50;;;;;;5000292;28;20037;-63
2023/08/24 01:20:11;;;;;;;2.45;2.05;;;24.20;63.60;;;;;;5009392;28;20049;-63
2023/08/24 01:22:41;;;;;;;3.05;2.10;;;24.20;63.60;;;;;;5008336;28;20130;-64
2023/08/24 01:25:24;;;;;;;2.40;2.20;;;24.20;63.80;;;;;;5007967;28;20041;-64
2023/08/24 01:27:51;;;;;;;2.55;2.08;;;24.20;63.40;;;;;;5006322;28;20034;-61
2023/08/24 01:30:18;;;;;;;2.80;2.13;;;24.20;63.40;;;;;;5014067;28;20061;-64
2023/08/24 01:32:43;;;;;;;2.95;2.65;;;24.20;63.30;;;;;;5009020;28;20040;-65
2023/08/24 01:35:09;;;;;;;3.30;2.10;;;24.20;63.40;;;;;;5006382;28;20029;-64
2023/08/24 01:37:36;;;;;;;2.10;1.90;;;24.20;63.40;;;;;;5010206;28;20137;-64
2023/08/24 01:40:17;;;;;;;2.28;2.08;;;24.20;63.50;;;;;;5002536;28;20080;-64
2023/08/24 01:42:53;;;;;;;4.25;2.50;;;24.20;63.40;;;;;;5006601;28;20110;-63
2023/08/24 01:45:22;;;;;;;2.65;2.38;;;24.20;63.40;;;;;;4998829;28;20096;-64
2023/08/24 01:47:48;;;;;;;2.40;2.20;;;24.20;63.50;;;;;;5000144;28;20057;-64
2023/08/24 01:50:15;;;;;;;2.25;1.95;;;24.20;63.40;;;;;;5002538;28;20029;-63
2023/08/24 01:52:42;;;;;;;2.15;1.95;;;24.20;63.50;;;;;;5006596;28;20037;-63
2023/08/24 01:55:08;;;;;;;2.10;2.00;;;24.20;63.50;;;;;;5009784;28;20229;-60
2023/08/24 01:57:33;;;;;;;3.15;2.25;;;24.10;63.60;;;;;;5009911;28;20064;-60
2023/08/24 01:59:59;;;;;;;2.90;2.30;;;24.10;63.50;;;;;;5011865;28;20526;-63
2023/08/24 02:02:24;;;;;;;2.63;2.42;;;24.10;63.40;;;;;;5009250;28;20038;-64
2023/08/24 02:04:50;;;;;;;3.03;2.20;;;24.10;63.40;;;;;;5006621;28;20034;-64
2023/08/24 02:07:16;;;;;;;2.75;1.95;;;24.10;63.40;;;;;;5010356;28;20026;-64
2023/08/24 02:09:41;;;;;;;2.40;2.08;;;24.10;63.40;;;;;;5005231;28;20045;-64
2023/08/24 02:12:07;;;;;;;2.40;2.05;;;24.10;63.50;;;;;;5008567;28;20066;-59
2023/08/24 02:14:33;;;;;;;2.22;2.00;;;24.10;63.50;;;;;;5010235;28;20030;-65
2023/08/24 02:16:58;;;;;;;3.42;2.40;;;24.10;63.20;;;;;;5005578;28;20567;-63
2023/08/24 02:19:24;;;;;;;3.92;2.33;;;24.10;63.40;;;;;;5009817;28;20037;-60
2023/08/24 02:21:49;;;;;;;2.40;2.20;;;24.10;63.40;;;;;;5004780;28;20060;-65
2023/08/24 02:24:15;;;;;;;2.40;2.20;;;24.10;63.30;;;;;;5012913;28;20121;-64
2023/08/24 02:26:40;;;;;;;4.03;2.30;;;24.10;63.40;;;;;;5006451;28;20033;-64
2023/08/24 02:29:06;;;;;;;3.42;3.03;;;24.10;63.30;;;;;;5008628;28;20025;-56
2023/08/24 02:31:31;;;;;;;2.72;2.13;;;24.10;63.30;;;;;;5007547;28;20126;-58
2023/08/24 02:33:57;;;;;;;4.20;2.47;;;24.10;63.40;;;;;;5008117;28;20030;-64
2023/08/24 02:36:23;;;;;;;2.63;2.22;;;24.10;63.30;;;;;;5010650;28;20868;-62
2023/08/24 02:38:48;;;;;;;3.25;2.95;;;24.10;63.30;;;;;;5005199;28;20053;-64
2023/08/24 02:41:14;;;;;;;2.55;2.35;;;24.00;63.40;;;;;;5005501;28;20049;-58
2023/08/24 02:43:40;;;;;;;2.20;1.88;;;24.00;63.20;;;;;;5007613;28;20033;-65
2023/08/24 02:46:08;;;;;;;2.67;2.35;;;24.10;63.20;;;;;;5006835;28;20030;-64
2023/08/24 02:48:34;;;;;;;3.78;2.47;;;24.00;63.40;;;;;;5000191;28;20041;-66
2023/08/24 02:51:01;;;;;;;2.95;2.40;;;24.00;63.20;;;;;;5004690;28;20038;-64
2023/08/24 02:53:26;;;;;;;2.60;2.40;;;24.10;63.40;;;;;;5009549;28;20377;-63
2023/08/24 02:55:53;;;;;;;3.17;2.15;;;24.00;63.30;;;;;;5010095;28;20045;-64
2023/08/24 02:58:19;;;;;;;4.07;2.25;;;24.00;63.30;;;;;;5007076;28;20032;-65
2023/08/24 03:00:45;;;;;;;2.42;2.15;;;24.00;63.30;;;;;;5008731;28;20037;-63
2023/08/24 03:03:10;;;;;;;2.40;2.10;;;24.00;63.30;;;;;;5006127;28;20079;-65
2023/08/24 03:05:36;;;;;;;2.53;2.33;;;24.00;63.40;;;;;;5015105;28;20164;-67
2023/08/24 03:08:04;;;;;;;2.80;2.50;;;24.00;63.40;;;;;;5008239;28;20049;-61
2023/08/24 03:10:30;;;;;;;2.40;2.20;;;24.00;63.40;;;;;;4970815;28;20634;-60
2023/08/24 03:12:55;;;;;;;2.65;2.20;;;24.00;63.30;;;;;;5012723;28;20058;-56
2023/08/24 03:15:21;;;;;;;3.42;2.40;;;24.00;63.00;;;;;;5007809;28;20472;-61
2023/08/24 03:17:47;;;;;;;3.28;2.20;;;24.00;63.10;;;;;;5010458;28;20034;-63
2023/08/24 03:20:12;;;;;;;2.40;2.05;;;23.90;63.10;;;;;;5014226;28;20049;-62
2023/08/24 03:22:38;;;;;;;2.20;2.00;;;24.00;63.10;;;;;;5016068;28;20515;-62
2023/08/24 03:25:04;;;;;;;2.30;2.10;;;24.00;63.20;;;;;;5016421;28;20319;-62
2023/08/24 03:27:30;;;;;;;2.53;2.20;;;23.90;63.10;;;;;;5012083;28;20410;-64
2023/08/24 03:29:55;;;;;;;2.65;2.45;;;23.90;63.20;;;;;;4988185;28;20037;-64
2023/08/24 03:32:21;;;;;;;3.85;2.65;;;23.90;63.10;;;;;;5011636;28;20130;-64
2023/08/24 03:34:47;;;;;;;2.40;2.20;;;23.90;63.10;;;;;;5013742;28;20033;-65
2023/08/24 03:37:12;;;;;;;3.38;2.50;;;23.90;63.20;;;;;;5013387;28;20144;-64
2023/08/24 03:39:38;;;;;;;2.85;2.58;;;23.90;63.20;;;;;;5011766;28;20033;-62
2023/08/24 03:42:04;;;;;;;3.20;2.50;;;23.90;63.20;;;;;;5010531;28;20053;-64
2023/08/24 03:44:30;;;;;;;2.42;2.22;;;23.90;63.10;;;;;;5010212;28;20029;-60
2023/08/24 03:46:55;;;;;;;3.13;2.28;;;23.90;63.30;;;;;;5011789;28;20089;-64
2023/08/24 03:49:21;;;;;;;2.78;2.50;;;23.90;63.20;;;;;;5015610;28;20281;-58
2023/08/24 03:51:46;;;;;;;2.60;2.40;;;23.90;63.80;;;;;;5012791;28;20450;-64
2023/08/24 03:54:11;;;;;;;3.53;2.25;;;23.90;63.10;;;;;;5014097;28;20077;-59
2023/08/24 03:56:37;;;;;;;4.20;2.63;;;23.90;63.20;;;;;;5014216;28;20030;-65
2023/08/24 03:59:03;;;;;;;2.60;2.20;;;23.90;63.10;;;;;;5018232;28;20242;-61
2023/08/24 04:01:28;;;;;;;2.72;2.00;;;23.90;63.20;;;;;;5014636;28;20029;-62
2023/08/24 04:03:54;;;;;;;2.60;2.38;;;23.80;63.00;;;;;;5017145;28;20030;-64
2023/08/24 04:06:20;;;;;;;3.85;2.30;;;23.90;63.10;;;;;;5007147;28;20049;-58
2023/08/24 04:08:45;;;;;;;2.75;2.25;;;23.80;63.10;;;;;;4982909;28;20034;-65
2023/08/24 04:11:11;;;;;;;3.20;2.30;;;23.80;63.00;;;;;;5004126;28;20529;-64
2023/08/24 04:13:36;;;;;;;2.83;2.25;;;23.80;63.00;;;;;;5002188;28;20026;-64
2023/08/24 04:16:03;;;;;;;2.85;2.20;;;23.80;62.90;;;;;;5002815;28;20073;-59
2023/08/24 04:18:29;;;;;;;3.03;2.45;;;23.70;63.00;;;;;;5000848;28;20282;-61
2023/08/24 04:20:55;;;;;;;3.83;2.33;;;23.70;62.90;;;;;;4999614;28;20023;-65
2023/08/24 04:23:27;;;;;;;2.75;2.55;;;23.70;62.70;;;;;;5005337;28;20029;-59
2023/08/24 04:25:54;;;;;;;2.35;2.15;;;23.70;62.90;;;;;;5007443;28;20084;-59
2023/08/24 04:28:20;;;;;;;2.80;2.50;;;23.70;62.70;;;;;;5001548;28;20026;-57
2023/08/24 04:30:53;;;;;;;2.25;2.05;;;23.70;62.90;;;;;;5007824;28;20036;-59
2023/08/24 04:33:19;;;;;;;4.90;2.33;;;23.70;62.80;;;;;;5001424;28;20029;-57
2023/08/24 04:35:48;;;;;;;3.08;2.30;;;23.70;63.00;;;;;;4999678;28;20042;-58
2023/08/24 04:38:14;;;;;;;2.80;2.35;;;23.70;62.80;;;;;;5003524;28;20029;-64
2023/08/24 04:40:52;;;;;;;3.78;2.35;;;23.70;62.80;;;;;;4998414;28;20418;-55
2023/08/24 04:43:18;;;;;;;2.72;2.50;;;23.70;62.60;;;;;;5003130;28;20022;-65
2023/08/24 04:45:46;;;;;;;2.88;2.50;;;23.70;62.70;;;;;;4996067;28;20026;-61
2023/08/24 04:48:12;;;;;;;2.33;2.10;;;23.70;62.80;;;;;;5007452;28;20026;-63
2023/08/24 04:50:37;;;;;;;3.03;2.55;;;23.70;62.70;;;;;;5006603;28;20025;-57
2023/08/24 04:53:03;;;;;;;2.38;2.17;;;23.70;62.50;;;;;;5003219;28;20030;-64
2023/08/24 04:55:28;;;;;;;3.67;2.45;;;23.70;62.80;;;;;;5010150;28;20117;-63
2023/08/24 04:57:54;;;;;;;3.20;2.67;;;23.70;62.50;;;;;;4994348;28;20037;-65
2023/08/24 05:00:19;;;;;;;2.63;2.40;;;23.70;62.20;;;;;;5003237;28;20494;-64
2023/08/24 05:02:45;;;;;;;4.55;2.30;;;23.70;61.50;;;;;;5002064;28;20041;-65
2023/08/24 05:05:10;;;;;;;2.80;2.40;;;23.70;61.00;;;;;;5004815;28;20116;-55
2023/08/24 05:07:40;;;;;;;4.03;2.53;;;23.60;60.80;;;;;;5008805;28;20042;-60
2023/08/24 05:10:07;;;;;;;2.75;2.55;;;23.60;60.80;;;;;;5009756;28;20041;-59
2023/08/24 05:12:35;;;;;;;3.05;2.78;;;23.60;60.50;;;;;;5011059;28;20045;-56
2023/08/24 05:15:04;;;;;;;4.07;2.55;;;23.60;60.40;;;;;;5012506;28;20087;-59
2023/08/24 05:17:31;;;;;;;3.80;2.63;;;23.60;60.50;;;;;;5012468;28;20045;-64
2023/08/24 05:19:57;;;;;;;10.57;2.70;;;23.60;60.60;;;;;;5011645;28;20049;-61
2023/08/24 05:22:23;;;;;;;5.00;2.70;;;23.60;60.60;;;;;;5006255;28;20036;-64
2023/08/24 05:24:48;;;;;;;4.72;2.35;;;23.50;60.00;;;;;;5004889;28;20030;-62
2023/08/24 05:27:14;;;;;;;5.70;2.72;;;23.40;60.00;;;;;;5008288;28;20025;-58
2023/08/24 05:29:39;;;;;;;4.57;2.90;;;23.40;60.10;;;;;;5007158;28;20033;-65
2023/08/24 05:32:05;;;;;;;3.95;2.63;;;23.40;60.40;;;;;;5005748;28;20302;-61
2023/08/24 05:34:31;;;;;;;3.42;2.50;;;23.30;61.70;;;;;;5002773;28;20516;-58
2023/08/24 05:36:56;;;;;;;5.20;2.30;;;23.30;62.70;;;;;;5007628;28;20112;-57
2023/08/24 05:39:22;;;;;;;3.38;2.60;;;23.30;63.00;;;;;;5009621;28;20606;-64
2023/08/24 05:41:51;;;;;;;4.90;2.42;;;23.20;63.20;;;;;;5011173;28;20310;-60
2023/08/24 05:44:17;;;;;;;3.85;2.03;;;23.30;63.40;;;;;;5012459;28;20032;-66
2023/08/24 05:46:43;;;;;;;2.75;2.53;;;23.20;64.10;;;;;;5010772;28;20029;-62
2023/08/24 05:49:09;;;;;;;2.20;2.05;;;23.20;63.70;;;;;;5013211;28;20034;-63
2023/08/24 05:51:34;;;;;;;4.97;2.65;;;23.20;63.60;;;;;;5004695;28;20108;-59
2023/08/24 05:54:00;;;;;;;3.40;2.75;;;23.20;64.00;;;;;;5006061;28;20034;-59
2023/08/24 05:56:26;;;;;;;4.07;2.45;;;23.20;64.20;;;;;;5008325;28;20041;-64
2023/08/24 05:58:51;;;;;;;4.68;3.05;;;23.20;64.40;;;;;;5003524;28;20057;-63
2023/08/24 06:01:17;;;;;;;3.47;2.08;;;23.20;64.60;;;;;;5004772;28;20451;-64
2023/08/24 06:03:43;;;;;;;3.38;2.90;;;23.20;64.70;;;;;;5003858;28;20064;-65
2023/08/24 06:06:09;;;;;;;2.63;2.20;;;23.20;64.80;;;;;;5007108;28;20065;-56
2023/08/24 06:08:35;;;;;;;3.55;2.53;;;23.20;65.00;;;;;;5007861;28;20046;-61
2023/08/24 06:11:00;;;;;;;4.40;3.15;;;23.20;65.20;;;;;;5010360;28;20025;-60
2023/08/24 06:13:27;;;;;;;4.70;2.85;;;23.20;65.40;;;;;;5013230;28;20534;-64
2023/08/24 06:15:54;;;;;;;3.28;2.58;;;23.20;65.60;;;;;;5008981;28;20030;-65
2023/08/24 06:18:19;;;;;;;3.55;2.28;;;23.20;65.90;;;;;;5010595;28;20037;-64
2023/08/24 06:20:45;;;;;;;5.35;2.70;;;23.30;66.30;;;;;;4975640;28;20389;-64
2023/08/24 06:23:13;;;;;;;5.30;2.92;;;23.40;67.10;;;;;;5006192;28;20033;-64
2023/08/24 06:25:38;;;;;;;4.95;2.90;;;23.30;66.50;;;;;;5012828;28;20394;-62
2023/08/24 06:28:05;;;;;;;3.67;2.92;;;23.40;66.80;;;;;;5002993;28;20303;-67
2023/08/24 06:30:36;;;;;;;2.90;2.60;;;23.40;66.90;;;;;;5004952;28;20083;-58
2023/08/24 06:33:03;;;;;;;3.90;2.97;;;23.40;67.10;;;;;;5004108;28;20205;-64
2023/08/24 06:35:29;;;;;;;3.67;3.30;;;23.40;67.20;;;;;;5006743;28;20056;-64
2023/08/24 06:37:55;;;;;;;3.28;2.60;;;23.40;67.20;;;;;;5010042;28;20609;-57
2023/08/24 06:40:20;;;;;;;5.55;2.72;;;23.40;67.30;;;;;;5013903;28;20441;-62
2023/08/24 06:42:46;;;;;;;2.90;2.60;;;23.40;67.30;;;;;;5013216;28;20033;-65
2023/08/24 06:45:11;;;;;;;6.43;2.92;;;23.50;67.60;;;;;;5009962;28;20033;-60
2023/08/24 06:47:39;;;;;;;6.95;3.40;;;23.40;67.10;;;;;;5010508;28;20029;-63
2023/08/24 06:50:06;;;;;;;4.35;3.20;;;23.40;66.40;;;;;;5006974;28;20084;-63
2023/08/24 06:52:31;;;;;;;5.28;3.42;;;23.50;65.80;;;;;;5005389;28;20284;-58
2023/08/24 06:54:57;;;;;;;4.60;2.50;;;23.50;65.50;;;;;;5005980;28;20042;-65
2023/08/24 06:57:23;;;;;;;7.00;3.22;;;23.50;65.00;;;;;;5004243;28;20033;-65
2023/08/24 06:59:48;;;;;;;4.13;2.85;;;23.50;65.10;;;;;;5000971;28;20454;-62
2023/08/24 07:02:14;;;;;;;6.30;2.97;;;23.50;64.90;;;;;;5007131;28;20037;-66
2023/08/24 07:04:40;;;;;;;4.70;3.22;;;23.50;64.80;;;;;;5008460;28;20121;-65
2023/08/24 07:07:06;;;;;;;4.05;3.65;;;23.50;65.10;;;;;;5014994;28;20776;-64
2023/08/24 07:09:32;;;;;;;3.03;2.72;;;23.50;65.10;;;;;;5010753;28;20315;-64
2023/08/24 07:11:58;;;;;;;4.65;3.15;;;23.60;64.90;;;;;;5009547;28;20030;-57
2023/08/24 07:14:23;;;;;;;4.50;2.88;;;23.60;64.80;;;;;;5010908;28;20252;-63
2023/08/24 07:16:49;;;;;;;3.45;2.78;;;23.60;64.60;;;;;;5008785;28;20038;-61
2023/08/24 07:19:14;;;;;;;6.50;3.03;;;23.60;64.60;;;;;;5006698;28;20069;-60
2023/08/24 07:21:40;;;;;;;8.02;2.92;;;23.60;65.10;;;;;;5005442;28;20559;-57
2023/08/24 07:24:05;;;;;;;7.35;3.00;;;23.60;64.00;;;;;;4992514;28;20030;-59
2023/08/24 07:26:31;;;;;;;3.83;3.33;;;23.60;63.40;;;;;;5004800;28;20037;-65
2023/08/24 07:28:57;;;;;;;5.28;3.17;;;23.60;63.50;;;;;;5006261;28;20038;-61
2023/08/24 07:31:23;;;;;;;4.53;3.03;;;23.60;63.40;;;;;;5009474;28;20030;-66
2023/08/24 07:33:48;;;;;;;4.05;3.17;;;23.60;63.30;;;;;;5008648;28;20120;-62
2023/08/24 07:36:14;;;;;;;3.85;3.22;;;23.60;63.40;;;;;;5012925;28;20033;-57
2023/08/24 07:38:40;;;;;;;6.93;3.03;;;23.60;63.50;;;;;;5011636;28;20041;-59
2023/08/24 07:41:06;;;;;;;5.65;3.30;;;23.70;63.50;;;;;;5011645;28;20033;-64
2023/08/24 07:43:32;;;;;;;5.75;3.08;;;23.60;63.40;;;;;;5008308;28;20034;-63
2023/08/24 07:45:58;;;;;;;4.43;3.40;;;23.60;63.50;;;;;;5010985;28;20386;-64
2023/08/24 07:48:23;;;;;;;3.42;2.60;;;23.60;63.60;;;;;;5014798;28;20037;-64
2023/08/24 07:50:49;;;;;;;4.13;2.97;;;23.60;63.50;;;;;;5013759;28;20030;-65
2023/08/24 07:53:14;;;;;;;3.13;2.65;;;23.70;63.40;;;;;;5009981;28;20478;-57
2023/08/24 07:55:40;;;;;;;3.45;2.72;;;23.70;63.40;;;;;;5009940;28;20037;-64
2023/08/24 07:58:06;;;;;;;5.90;2.72;;;23.70;63.10;;;;;;5009607;28;20033;-65
2023/08/24 08:00:32;;;;;;;8.07;3.00;;;23.70;63.10;;;;;;5011528;28;20048;-63
2023/08/24 08:02:58;;;;;;;4.68;2.90;;;23.70;63.00;;;;;;5013144;28;20520;-64
2023/08/24 08:05:24;;;;;;;5.28;3.00;;;23.70;63.10;;;;;;5015516;28;20046;-64
2023/08/24 08:07:49;;;;;;;6.13;3.22;;;23.70;63.20;;;;;;5014917;28;20034;-56
2023/08/24 08:10:17;;;;;;;4.88;3.25;;;23.70;62.80;;;;;;5014253;28;20397;-63
2023/08/24 08:12:42;;;;;;;4.35;3.50;;;23.70;62.90;;;;;;5012345;28;20052;-60
2023/08/24 08:15:08;;;;;;;6.20;2.88;;;23.70;62.90;;;;;;5011340;28;20034;-60
2023/08/24 08:17:34;;;;;;;7.07;3.35;;;23.70;62.50;;;;;;5016272;28;20043;-60
2023/08/24 08:19:59;;;;;;;5.32;3.05;;;23.70;62.90;;;;;;5012384;28;20049;-58
2023/08/24 08:22:25;;;;;;;4.75;3.10;;;23.70;62.00;;;;;;5005279;28;20038;-64
2023/08/24 08:24:54;;;;;;;5.13;3.28;;;23.70;62.20;;;;;;5007183;28;20064;-57
2023/08/24 08:27:20;;;;;;;5.15;3.50;;;23.70;62.50;;;;;;5006003;28;20439;-57
2023/08/24 08:29:45;;;;;;;4.13;3.28;;;23.70;62.20;;;;;;5009010;28;20038;-63
2023/08/24 08:32:12;;;;;;;3.63;2.60;;;23.70;62.30;;;;;;5006634;28;20053;-64
2023/08/24 08:34:38;;;;;;;5.10;3.08;;;23.70;62.60;;;;;;5006812;28;20088;-64
2023/08/24 08:37:03;;;;;;;3.28;2.63;;;23.70;62.00;;;;;;5001258;28;20038;-64
2023/08/24 08:39:29;;;;;;;4.72;3.30;;;23.70;62.30;;;;;;5007118;28;20069;-60
2023/08/24 08:41:55;;;;;;;3.97;3.00;;;23.70;62.10;;;;;;5010063;28;20057;-65
2023/08/24 08:44:22;;;;;;;8.90;3.55;;;23.70;61.60;;;;;;5014869;28;20096;-64
2023/08/24 08:46:50;;;;;;;3.60;3.00;;;23.70;61.10;;;;;;5007402;28;20084;-64
2023/08/24 08:49:17;;;;;;;3.15;2.85;;;23.70;61.00;;;;;;5003491;28;20386;-59
2023/08/24 08:51:42;;;;;;;5.47;3.20;;;23.70;60.60;;;;;;5009190;28;20386;-65
2023/08/24 08:54:08;;;;;;;8.13;3.55;;;23.70;60.40;;;;;;5014624;28;20034;-56
2023/08/24 08:56:34;;;;;;;6.10;3.17;;;23.70;60.40;;;;;;5011433;28;20481;-63
2023/08/24 08:59:01;;;;;;;4.82;3.13;;;23.70;60.90;;;;;;5012391;28;20045;-61
2023/08/24 09:01:28;;;;;;;6.47;3.35;;;23.70;61.30;;;;;;5013990;28;20479;-64
2023/08/24 09:03:54;;;;;;;4.15;3.42;;;23.70;60.80;;;;;;5007775;28;20428;-57
2023/08/24 09:06:20;;;;;;;4.50;3.10;;;23.70;60.10;;;;;;5007900;28;20486;-58
2023/08/24 09:08:47;;;;;;;6.15;3.88;;;23.80;60.60;;;;;;5006942;28;20516;-64
2023/08/24 09:11:14;;;;;;;3.70;3.30;;;23.80;60.50;;;;;;5008415;28;20902;-63
2023/08/24 09:13:39;;;;;;;6.80;4.30;;;23.70;60.70;;;;;;5010394;28;20040;-63
2023/08/24 09:16:06;;;;;;;5.03;3.42;;;23.80;60.80;;;;;;5010465;28;20463;-61
2023/08/24 09:18:39;;;;;;;5.50;3.15;;;23.80;61.10;;;;;;4993314;28;20726;-56
2023/08/24 09:21:12;;;;;;;4.72;3.35;;;23.80;61.00;;;;;;5009148;28;20058;-63
2023/08/24 09:24:04;;;;;;;3.63;3.33;;;23.80;61.30;;;;;;5007619;28;20073;-64
2023/08/24 09:26:31;;;;;;;6.05;3.70;;;23.80;61.50;;;;;;5008351;28;20104;-62
2023/08/24 09:28:57;;;;;;;6.47;3.78;;;23.80;61.50;;;;;;5012858;28;20393;-65
2023/08/24 09:31:24;;;;;;;5.00;4.20;;;23.80;61.40;;;;;;5012089;28;20560;-61
2023/08/24 09:33:49;;;;;;;6.38;4.00;;;23.80;61.40;;;;;;5000527;28;20045;-63
2023/08/24 09:36:15;;;;;;;5.18;3.42;;;23.80;61.60;;;;;;5008113;28;20101;-64
2023/08/24 09:38:48;;;;;;;3.90;3.13;;;23.80;61.70;;;;;;5004799;28;20037;-63
2023/08/24 09:41:14;;;;;;;4.03;3.45;;;23.80;61.70;;;;;;5006881;28;20037;-58
2023/08/24 09:43:40;;;;;;;6.45;3.58;;;23.90;61.80;;;;;;5006373;28;20030;-59
2023/08/24 09:46:07;;;;;;;4.97;3.75;;;23.90;61.90;;;;;;5007309;28;20028;-62
2023/08/24 09:48:33;;;;;;;3.90;3.50;;;23.90;61.40;;;;;;4983498;28;20179;-60
2023/08/24 09:51:03;;;;;;;4.47;3.63;;;23.90;61.40;;;;;;5013373;28;20104;-64
2023/08/24 09:53:32;;;;;;;5.25;4.00;;;23.90;61.60;;;;;;5012043;28;20035;-60
2023/08/24 09:56:02;;;;;;;4.13;3.78;;;23.90;61.70;;;;;;5009868;28;20111;-60
2023/08/24 09:58:29;;;;;;;4.70;4.10;;;23.90;61.60;;;;;;5011907;28;20098;-62
2023/08/24 10:00:55;;;;;;;7.22;3.80;;;23.90;61.80;;;;;;5006809;28;20454;-63
2023/08/24 10:03:29;;;;;;;5.90;4.07;;;23.90;61.70;;;;;;5003268;28;20030;-59
2023/08/24 10:06:03;;;;;;;7.50;3.78;;;23.90;61.80;;;;;;5006291;28;20026;-57
2023/08/24 10:08:38;;;;;;;5.07;4.38;;;23.90;61.90;;;;;;5010890;28;20040;-59
2023/08/24 10:11:05;;;;;;;5.57;3.80;;;23.90;62.00;;;;;;5005169;28;21038;-64
2023/08/24 10:13:54;;;;;;;4.50;4.05;;;23.90;62.00;;;;;;4976558;28;20087;-64
2023/08/24 10:16:21;;;;;;;6.10;4.20;;;23.90;61.80;;;;;;5010390;28;20325;-57
2023/08/24 10:18:48;;;;;;;4.38;3.58;;;23.90;61.60;;;;;;5006386;28;20045;-64
2023/08/24 10:21:14;;;;;;;4.35;3.63;;;23.90;61.20;;;;;;5012028;28;20397;-56
2023/08/24 10:23:43;;;;;;;5.50;3.70;;;23.90;61.40;;;;;;5008651;28;20037;-59
2023/08/24 10:26:10;;;;;;;4.00;3.38;;;23.90;61.50;;;;;;5006837;28;20432;-64
2023/08/24 10:28:36;;;;;;;7.82;4.57;;;23.90;61.60;;;;;;5009624;28;20026;-58
2023/08/24 10:31:03;;;;;;;4.22;3.83;;;23.90;61.50;;;;;;5003975;28;20093;-60
2023/08/24 10:33:30;;;;;;;4.40;3.50;;;23.90;61.60;;;;;;5005315;28;20050;-61
2023/08/24 10:35:56;;;;;;;4.75;3.90;;;23.90;61.70;;;;;;5005120;28;20022;-63
2023/08/24 10:38:29;;;;;;;5.10;3.70;;;23.90;61.60;;;;;;5004857;28;20029;-64
2023/08/24 10:41:03;;;;;;;4.88;4.28;;;23.90;61.50;;;;;;5004583;28;20116;-58
2023/08/24 10:43:28;;;;;;;5.15;3.95;;;23.90;61.60;;;;;;5002012;28;20033;-61
2023/08/24 10:46:01;;;;;;;4.22;3.83;;;23.90;61.40;;;;;;5001934;28;20438;-57
2023/08/24 10:48:49;;;;;;;6.53;4.22;;;23.90;61.50;;;;;;5002578;28;20500;-64
2023/08/24 10:51:19;;;;;;;5.55;3.65;;;23.90;61.60;;;;;;4991972;28;20030;-59
2023/08/24 10:53:47;;;;;;;4.50;4.03;;;23.90;61.60;;;;;;5002366;28;20041;-59
2023/08/24 10:56:17;;;;;;;6.50;4.13;;;23.90;61.70;;;;;;5002645;28;20088;-64
2023/08/24 10:58:44;;;;;;;5.07;4.05;;;23.90;61.80;;;;;;5002394;28;20377;-63
2023/08/24 11:01:21;;;;;;;6.97;4.10;;;23.90;61.90;;;;;;4999670;28;20501;-64
2023/08/24 11:03:54;;;;;;;4.75;4.13;;;23.90;62.50;;;;;;4999722;28;20033;-64
2023/08/24 11:06:25;;;;;;;4.40;3.78;;;23.90;62.60;;;;;;5002171;28;20049;-62
2023/08/24 11:09:13;;;;;;;4.47;4.07;;;23.90;62.70;;;;;;4998576;28;20034;-60
2023/08/24 11:11:39;;;;;;;4.10;3.70;;;23.90;62.70;;;;;;4999980;28;20029;-59
2023/08/24 11:14:22;;;;;;;4.07;3.67;;;23.90;62.80;;;;;;5001825;28;20026;-57
2023/08/24 11:16:48;;;;;;;5.20;4.22;;;24.00;62.80;;;;;;4998614;28;20041;-63
2023/08/24 11:19:15;;;;;;;5.50;4.43;;;23.90;62.70;;;;;;4999554;28;20034;-61
2023/08/24 11:21:42;;;;;;;6.18;4.10;;;23.90;62.70;;;;;;5003514;28;20030;-63
2023/08/24 11:24:10;;;;;;;7.78;4.30;;;23.90;62.60;;;;;;5007815;28;20154;-56
2023/08/24 11:26:40;;;;;;;5.45;4.05;;;23.90;62.50;;;;;;5010425;28;20100;-64
2023/08/24 11:29:06;;;;;;;4.88;4.35;;;23.90;62.50;;;;;;5009290;28;20520;-64
2023/08/24 11:31:34;;;;;;;4.95;4.45;;;24.00;62.80;;;;;;5012431;28;20265;-57
2023/08/24 11:33:59;;;;;;;5.60;4.20;;;24.00;63.00;;;;;;5010536;28;20527;-62
2023/08/24 11:36:25;;;;;;;3.78;3.42;;;24.00;63.00;;;;;;5008927;28;20073;-64
2023/08/24 11:38:57;;;;;;;4.53;3.83;;;24.00;62.90;;;;;;5008025;28;20118;-61
2023/08/24 11:41:23;;;;;;;6.72;4.22;;;24.00;63.00;;;;;;5009673;28;20032;-66
2023/08/24 11:43:50;;;;;;;5.35;4.50;;;24.00;62.90;;;;;;5007847;28;20034;-64
2023/08/24 11:46:17;;;;;;;5.20;3.97;;;24.00;62.80;;;;;;5010482;28;20706;-64
2023/08/24 11:48:43;;;;;;;5.82;3.63;;;24.00;62.80;;;;;;5006694;28;20021;-59
2023/08/24 11:51:12;;;;;;;6.00;4.22;;;24.00;62.90;;;;;;5006080;28;20022;-65
2023/08/24 11:53:42;;;;;;;4.95;3.47;;;24.00;62.90;;;;;;5005753;28;20697;-59
2023/08/24 11:56:12;;;;;;;4.18;3.78;;;24.00;63.00;;;;;;5002146;28;20552;-62
2023/08/24 11:58:40;;;;;;;4.43;4.03;;;24.00;63.00;;;;;;5004376;28;20032;-64
2023/08/24 12:01:06;;;;;;;4.50;4.03;;;24.00;63.20;;;;;;5000877;28;20045;-61
2023/08/24 12:03:32;;;;;;;3.97;3.58;;;24.00;63.00;;;;;;5007728;28;20030;-64
2023/08/24 12:06:03;;;;;;;6.15;4.50;;;24.00;63.00;;;;;;5007204;28;20121;-65
2023/08/24 12:08:29;;;;;;;5.90;4.20;;;24.00;63.00;;;;;;5003713;28;20042;-62
2023/08/24 12:10:55;;;;;;;4.60;4.20;;;24.00;62.80;;;;;;5001002;28;20493;-58
2023/08/24 12:13:22;;;;;;;4.88;3.95;;;24.00;62.80;;;;;;4986850;28;20369;-59
2023/08/24 12:15:50;;;;;;;4.38;3.97;;;24.00;62.70;;;;;;5008445;28;20030;-64
2023/08/24 12:18:16;;;;;;;5.68;3.90;;;24.00;62.60;;;;;;5004723;28;20038;-57
2023/08/24 12:20:41;;;;;;;3.65;3.33;;;24.00;63.20;;;;;;4999556;28;20277;-64
2023/08/24 12:23:08;;;;;;;5.20;3.53;;;24.00;62.60;;;;;;5005528;28;20084;-65
2023/08/24 12:25:43;;;;;;;5.75;4.18;;;24.00;62.70;;;;;;5002835;28;20330;-57
2023/08/24 12:28:09;;;;;;;;;;;24.00;62.40;;;;;;5003120;28;20026;-64
2023/08/24 12:30:49;;;;;;;4.97;3.95;;;24.00;62.20;;;;;;5002849;28;19964;-57
2023/08/24 12:33:25;;;;;;;7.88;4.22;;;24.00;62.20;;;;;;4999167;28;20040;-58
2023/08/24 12:35:52;;;;;;;8.77;4.47;;;24.00;62.10;;;;;;5006269;28;20033;-59
2023/08/24 12:38:17;;;;;;;6.68;4.30;;;24.00;62.20;;;;;;4998748;28;20044;-57
2023/08/24 12:40:43;;;;;;;9.15;4.50;;;24.00;61.90;;;;;;5002401;28;20034;-64
2023/08/24 12:43:08;;;;;;;4.78;3.95;;;24.10;62.00;;;;;;5003666;28;20027;-62
2023/08/24 12:45:34;;;;;;;4.82;4.28;;;24.00;61.70;;;;;;5001996;28;20497;-57
2023/08/24 12:48:00;;;;;;;5.57;5.07;;;24.10;61.90;;;;;;5006602;28;20091;-63